LKR452 KMIA-KOMA
Flight info
| Callsign | LKR452 |
|---|---|
| Flight time | N/A |
| Altitude | 32000 |
| Route | HURCN4 SMELZ Q110 JOKKY LGC GAD RQZ/N0469F340 DEPEC ENL BAYLI CHASY DSM LANTK2 |
| Aircraft | A306/H-SDE3FGHIRWY/LB1 |
Departure
| Time | 2026-04-30 12:20 |
|---|---|
| Airport | Miami International Airport (KMIA) |
Arrival
| Time | N/A |
|---|---|
| Airport | Eppley Airfield (KOMA) |
| Time | Latitude | Longitude | Altitude | Speed | Heading |
|---|---|---|---|---|---|
| 2026-04-30 12:00 | 25.79322 | -80.28118 | 18 ft | 0 kts | 168° |
| 2026-04-30 12:07 | 25.79330 | -80.28120 | 18 ft | 2 kts | 168° |
| 2026-04-30 12:07 | 25.79345 | -80.28123 | 18 ft | 2 kts | 168° |
| 2026-04-30 12:07 | 25.79360 | -80.28126 | 18 ft | 2 kts | 188° |
| 2026-04-30 12:07 | 25.79375 | -80.28121 | 18 ft | 2 kts | 206° |
| 2026-04-30 12:08 | 25.79387 | -80.28112 | 18 ft | 2 kts | 224° |
| 2026-04-30 12:08 | 25.79397 | -80.28099 | 18 ft | 1 kts | 242° |
| 2026-04-30 12:08 | 25.79399 | -80.28095 | 18 ft | 0 kts | 246° |
| 2026-04-30 12:11 | 25.79396 | -80.28103 | 18 ft | 3 kts | 246° |
| 2026-04-30 12:11 | 25.79376 | -80.28153 | 18 ft | 9 kts | 253° |
| 2026-04-30 12:11 | 25.79355 | -80.28240 | 18 ft | 14 kts | 255° |
| 2026-04-30 12:12 | 25.79341 | -80.28363 | 18 ft | 16 kts | 266° |
| 2026-04-30 12:12 | 25.79332 | -80.28494 | 18 ft | 16 kts | 266° |
| 2026-04-30 12:12 | 25.79336 | -80.28615 | 18 ft | 14 kts | 291° |
| 2026-04-30 12:12 | 25.79378 | -80.28719 | 18 ft | 14 kts | 300° |
| 2026-04-30 12:13 | 25.79442 | -80.28793 | 18 ft | 13 kts | 346° |
| 2026-04-30 12:13 | 25.79543 | -80.28803 | 18 ft | 14 kts | 357° |
| 2026-04-30 12:13 | 25.79644 | -80.28808 | 18 ft | 14 kts | 357° |
| 2026-04-30 12:13 | 25.79747 | -80.28813 | 18 ft | 14 kts | 358° |
| 2026-04-30 12:14 | 25.79848 | -80.28818 | 18 ft | 14 kts | 358° |
| 2026-04-30 12:14 | 25.79936 | -80.28796 | 18 ft | 12 kts | 70° |
| 2026-04-30 12:14 | 25.79937 | -80.28702 | 18 ft | 11 kts | 90° |
| 2026-04-30 12:14 | 25.79938 | -80.28612 | 18 ft | 11 kts | 90° |
| 2026-04-30 12:15 | 25.79942 | -80.28522 | 18 ft | 12 kts | 84° |
| 2026-04-30 12:15 | 25.79949 | -80.28418 | 18 ft | 14 kts | 86° |
| 2026-04-30 12:15 | 25.79953 | -80.28293 | 18 ft | 17 kts | 88° |
| 2026-04-30 12:15 | 25.79960 | -80.28153 | 18 ft | 19 kts | 87° |
| 2026-04-30 12:16 | 25.79966 | -80.28003 | 18 ft | 19 kts | 88° |
| 2026-04-30 12:16 | 25.79972 | -80.27856 | 18 ft | 19 kts | 88° |
| 2026-04-30 12:16 | 25.79977 | -80.27710 | 18 ft | 18 kts | 88° |
| 2026-04-30 12:16 | 25.79984 | -80.27566 | 18 ft | 18 kts | 87° |
| 2026-04-30 12:17 | 25.79996 | -80.27283 | 18 ft | 18 kts | 88° |
| 2026-04-30 12:17 | 25.80000 | -80.27142 | 18 ft | 17 kts | 82° |
| 2026-04-30 12:17 | 25.80064 | -80.27046 | 18 ft | 13 kts | 48° |
| 2026-04-30 12:18 | 25.80129 | -80.26975 | 18 ft | 12 kts | 29° |
| 2026-04-30 12:18 | 25.80198 | -80.26990 | 18 ft | 10 kts | 297° |
| 2026-04-30 12:18 | 25.80202 | -80.27024 | 18 ft | 0 kts | 268° |
| 2026-04-30 12:18 | 25.80201 | -80.27028 | 18 ft | 1 kts | 268° |
| 2026-04-30 12:19 | 25.80201 | -80.27030 | 18 ft | 0 kts | 268° |
| 2026-04-30 12:19 | 25.80188 | -80.27297 | 18 ft | 71 kts | 266° |
| 2026-04-30 12:19 | 25.80157 | -80.28097 | 18 ft | 136 kts | 267° |
| 2026-04-30 12:19 | 25.80105 | -80.29354 | 126 ft | 177 kts | 267° |
| 2026-04-30 12:20 | 25.80046 | -80.30666 | 773 ft | 173 kts | 268° |
| 2026-04-30 12:20 | 25.80137 | -80.32014 | 1267 ft | 182 kts | 277° |
| 2026-04-30 12:20 | 25.80362 | -80.33473 | 1525 ft | 202 kts | 281° |
| 2026-04-30 12:20 | 25.80641 | -80.35120 | 1742 ft | 229 kts | 281° |
| 2026-04-30 12:21 | 25.80949 | -80.36932 | 2123 ft | 251 kts | 281° |
| 2026-04-30 12:21 | 25.81276 | -80.38862 | 2840 ft | 261 kts | 281° |
| 2026-04-30 12:21 | 25.81617 | -80.40870 | 3714 ft | 266 kts | 281° |
| 2026-04-30 12:21 | 25.81955 | -80.42864 | 4616 ft | 269 kts | 281° |
| 2026-04-30 12:22 | 25.82450 | -80.44853 | 5457 ft | 272 kts | 300° |
| 2026-04-30 12:22 | 25.83784 | -80.46347 | 6130 ft | 281 kts | 333° |
| 2026-04-30 12:22 | 25.85687 | -80.46853 | 6988 ft | 283 kts | 355° |
| 2026-04-30 12:22 | 25.87598 | -80.47059 | 7925 ft | 282 kts | 351° |
| 2026-04-30 12:23 | 25.89506 | -80.47506 | 8764 ft | 284 kts | 344° |
| 2026-04-30 12:23 | 25.91404 | -80.48176 | 9565 ft | 287 kts | 340° |
| 2026-04-30 12:23 | 25.93247 | -80.48965 | 10306 ft | 292 kts | 337° |
| 2026-04-30 12:23 | 25.95195 | -80.49880 | 10661 ft | 312 kts | 336° |
| 2026-04-30 12:24 | 25.97238 | -80.50886 | 10961 ft | 334 kts | 335° |
| 2026-04-30 12:24 | 25.99438 | -80.51994 | 11249 ft | 355 kts | 335° |
| 2026-04-30 12:24 | 26.01735 | -80.53161 | 11546 ft | 376 kts | 335° |
| 2026-04-30 12:24 | 26.04155 | -80.54395 | 12134 ft | 387 kts | 335° |
| 2026-04-30 12:25 | 26.06596 | -80.55642 | 12951 ft | 391 kts | 335° |
| 2026-04-30 12:25 | 26.09083 | -80.56913 | 13802 ft | 393 kts | 334° |
| 2026-04-30 12:25 | 26.11582 | -80.58191 | 14562 ft | 397 kts | 334° |
| 2026-04-30 12:25 | 26.14099 | -80.59450 | 15275 ft | 401 kts | 335° |
| 2026-04-30 12:26 | 26.16643 | -80.60681 | 15979 ft | 405 kts | 335° |
| 2026-04-30 12:26 | 26.19261 | -80.61931 | 16690 ft | 408 kts | 335° |
| 2026-04-30 12:26 | 26.21868 | -80.63174 | 17367 ft | 412 kts | 335° |
| 2026-04-30 12:26 | 26.24527 | -80.64443 | 18024 ft | 415 kts | 335° |
| 2026-04-30 12:27 | 26.27191 | -80.65718 | 18664 ft | 419 kts | 334° |
| 2026-04-30 12:27 | 26.29862 | -80.66997 | 19311 ft | 422 kts | 334° |
| 2026-04-30 12:27 | 26.32561 | -80.68291 | 19947 ft | 425 kts | 334° |
| 2026-04-30 12:27 | 26.35284 | -80.69598 | 20573 ft | 429 kts | 334° |
| 2026-04-30 12:28 | 26.38030 | -80.70915 | 21184 ft | 432 kts | 334° |
| 2026-04-30 12:28 | 26.40631 | -80.72463 | 21712 ft | 432 kts | 321° |
| 2026-04-30 12:28 | 26.42843 | -80.74712 | 22286 ft | 431 kts | 311° |
| 2026-04-30 12:28 | 26.44850 | -80.77240 | 22925 ft | 432 kts | 308° |
| 2026-04-30 12:29 | 26.46792 | -80.79756 | 23458 ft | 436 kts | 309° |
| 2026-04-30 12:29 | 26.48807 | -80.82290 | 24010 ft | 440 kts | 309° |
| 2026-04-30 12:29 | 26.50896 | -80.84843 | 24571 ft | 442 kts | 310° |
| 2026-04-30 12:29 | 26.52983 | -80.87365 | 25110 ft | 446 kts | 310° |
| 2026-04-30 12:30 | 26.55090 | -80.89907 | 25665 ft | 449 kts | 310° |
| 2026-04-30 12:30 | 26.57188 | -80.92442 | 26267 ft | 450 kts | 310° |
| 2026-04-30 12:30 | 26.59314 | -80.95016 | 26848 ft | 450 kts | 310° |
| 2026-04-30 12:30 | 26.61442 | -80.97594 | 27373 ft | 450 kts | 310° |
| 2026-04-30 12:31 | 26.63548 | -81.00151 | 27848 ft | 449 kts | 310° |
| 2026-04-30 12:31 | 26.65653 | -81.02705 | 28296 ft | 446 kts | 310° |
| 2026-04-30 12:31 | 26.67738 | -81.05238 | 28721 ft | 444 kts | 310° |
| 2026-04-30 12:31 | 26.69840 | -81.07791 | 29132 ft | 441 kts | 309° |
| 2026-04-30 12:32 | 26.71915 | -81.10315 | 29522 ft | 439 kts | 309° |
| 2026-04-30 12:32 | 26.73978 | -81.12825 | 29905 ft | 436 kts | 309° |
| 2026-04-30 12:32 | 26.76013 | -81.15302 | 30244 ft | 435 kts | 309° |
| 2026-04-30 12:32 | 26.78056 | -81.17792 | 30552 ft | 434 kts | 309° |
| 2026-04-30 12:33 | 26.80098 | -81.20281 | 30842 ft | 433 kts | 309° |
| 2026-04-30 12:33 | 26.82134 | -81.22763 | 31082 ft | 432 kts | 309° |
| 2026-04-30 12:33 | 26.84152 | -81.25226 | 31280 ft | 432 kts | 309° |
| 2026-04-30 12:33 | 26.86191 | -81.27716 | 31465 ft | 432 kts | 309° |
| 2026-04-30 12:34 | 26.88208 | -81.30180 | 31641 ft | 431 kts | 308° |
| 2026-04-30 12:34 | 26.90235 | -81.32657 | 31815 ft | 431 kts | 308° |
| 2026-04-30 12:34 | 26.92267 | -81.35142 | 31988 ft | 430 kts | 308° |
| 2026-04-30 12:34 | 26.94294 | -81.37623 | 32152 ft | 429 kts | 307° |
| 2026-04-30 12:35 | 26.96293 | -81.40070 | 32302 ft | 429 kts | 307° |
| 2026-04-30 12:35 | 26.98316 | -81.42549 | 32440 ft | 429 kts | 306° |
| 2026-04-30 12:35 | 27.00314 | -81.44997 | 32565 ft | 429 kts | 306° |
| 2026-04-30 12:35 | 27.02333 | -81.47474 | 32682 ft | 428 kts | 306° |
| 2026-04-30 12:36 | 27.04344 | -81.49918 | 32797 ft | 430 kts | 307° |
| 2026-04-30 12:36 | 27.06627 | -81.52104 | 32917 ft | 438 kts | 316° |
| 2026-04-30 12:36 | 27.09177 | -81.54014 | 33038 ft | 442 kts | 320° |
| 2026-04-30 12:36 | 27.11821 | -81.55827 | 33148 ft | 443 kts | 320° |
| 2026-04-30 12:37 | 27.14440 | -81.57634 | 33254 ft | 442 kts | 320° |
| 2026-04-30 12:37 | 27.17026 | -81.59465 | 33359 ft | 441 kts | 319° |
| 2026-04-30 12:37 | 27.19591 | -81.61314 | 33464 ft | 440 kts | 319° |
| 2026-04-30 12:37 | 27.22153 | -81.63171 | 33569 ft | 439 kts | 319° |
| 2026-04-30 12:38 | 27.24699 | -81.65017 | 33672 ft | 438 kts | 318° |
| 2026-04-30 12:38 | 27.27281 | -81.66885 | 33809 ft | 437 kts | 318° |
| 2026-04-30 12:38 | 27.29805 | -81.68713 | 33937 ft | 436 kts | 318° |
| 2026-04-30 12:38 | 27.32345 | -81.70551 | 34003 ft | 435 kts | 318° |
| 2026-04-30 12:39 | 27.37420 | -81.74228 | 34007 ft | 435 kts | 318° |
| 2026-04-30 12:39 | 27.42522 | -81.77927 | 34003 ft | 435 kts | 318° |
| 2026-04-30 12:40 | 27.47721 | -81.81377 | 34007 ft | 443 kts | 325° |
| 2026-04-30 12:40 | 27.53431 | -81.84142 | 34002 ft | 447 kts | 328° |
| 2026-04-30 12:41 | 27.59161 | -81.86856 | 33999 ft | 446 kts | 328° |
| 2026-04-30 12:41 | 27.64822 | -81.89620 | 33998 ft | 446 kts | 327° |
| 2026-04-30 12:42 | 27.70507 | -81.92401 | 33997 ft | 446 kts | 327° |
| 2026-04-30 12:42 | 27.76216 | -81.95190 | 33996 ft | 446 kts | 327° |
| 2026-04-30 12:43 | 27.81864 | -81.97953 | 33994 ft | 446 kts | 327° |
| 2026-04-30 12:43 | 27.87581 | -82.00754 | 33998 ft | 446 kts | 327° |
| 2026-04-30 12:44 | 27.93269 | -82.03543 | 33994 ft | 447 kts | 327° |
| 2026-04-30 12:44 | 27.98919 | -82.06316 | 33992 ft | 447 kts | 327° |
| 2026-04-30 12:45 | 28.04609 | -82.09113 | 33997 ft | 447 kts | 327° |
| 2026-04-30 12:45 | 28.10157 | -82.12149 | 34011 ft | 438 kts | 321° |
| 2026-04-30 12:46 | 28.15269 | -82.15830 | 34005 ft | 435 kts | 318° |
| 2026-04-30 12:46 | 28.20354 | -82.19519 | 34008 ft | 436 kts | 319° |
| 2026-04-30 12:47 | 28.25490 | -82.23173 | 34008 ft | 436 kts | 319° |
| 2026-04-30 12:47 | 28.30609 | -82.26819 | 34009 ft | 436 kts | 319° |
| 2026-04-30 12:48 | 28.35695 | -82.30450 | 34010 ft | 436 kts | 319° |
| 2026-04-30 12:48 | 28.40825 | -82.34117 | 34001 ft | 436 kts | 319° |
| 2026-04-30 12:49 | 28.45933 | -82.37772 | 33993 ft | 436 kts | 319° |
| 2026-04-30 12:49 | 28.51074 | -82.41456 | 33986 ft | 436 kts | 319° |
| 2026-04-30 12:50 | 28.56186 | -82.45122 | 33981 ft | 436 kts | 319° |
| 2026-04-30 12:50 | 28.61296 | -82.48792 | 33978 ft | 436 kts | 319° |
| 2026-04-30 12:51 | 28.66419 | -82.52474 | 33975 ft | 436 kts | 319° |
| 2026-04-30 12:51 | 28.71521 | -82.56147 | 33971 ft | 436 kts | 319° |
| 2026-04-30 12:52 | 28.76603 | -82.59809 | 33965 ft | 436 kts | 319° |
| 2026-04-30 12:52 | 28.81719 | -82.63500 | 33959 ft | 436 kts | 319° |
| 2026-04-30 12:53 | 28.86838 | -82.67198 | 33981 ft | 436 kts | 319° |
| 2026-04-30 12:53 | 28.91945 | -82.70895 | 33983 ft | 436 kts | 319° |
| 2026-04-30 12:54 | 28.97064 | -82.74601 | 33985 ft | 437 kts | 319° |
| 2026-04-30 12:54 | 29.02179 | -82.78308 | 33984 ft | 437 kts | 319° |
| 2026-04-30 12:55 | 29.07307 | -82.82030 | 33982 ft | 436 kts | 319° |
| 2026-04-30 12:55 | 29.12388 | -82.85722 | 33971 ft | 435 kts | 320° |
| 2026-04-30 12:56 | 29.17473 | -82.89420 | 33962 ft | 434 kts | 320° |
| 2026-04-30 12:56 | 29.22553 | -82.93129 | 33957 ft | 434 kts | 320° |
| 2026-04-30 12:57 | 29.27597 | -82.96839 | 33956 ft | 433 kts | 320° |
| 2026-04-30 12:57 | 29.32680 | -83.00555 | 33956 ft | 433 kts | 320° |
| 2026-04-30 12:58 | 29.37722 | -83.04241 | 33955 ft | 433 kts | 321° |
| 2026-04-30 12:58 | 29.42791 | -83.07953 | 33953 ft | 432 kts | 321° |
| 2026-04-30 12:59 | 29.47841 | -83.11655 | 33952 ft | 432 kts | 321° |
| 2026-04-30 12:59 | 29.52912 | -83.15378 | 33953 ft | 432 kts | 321° |
| 2026-04-30 13:00 | 29.57959 | -83.19087 | 33954 ft | 432 kts | 321° |
| 2026-04-30 13:00 | 29.63019 | -83.22810 | 33953 ft | 432 kts | 321° |
| 2026-04-30 13:01 | 29.68074 | -83.26533 | 33953 ft | 432 kts | 321° |
| 2026-04-30 13:01 | 29.73121 | -83.30256 | 33953 ft | 432 kts | 321° |
| 2026-04-30 13:02 | 29.78147 | -83.33968 | 33953 ft | 432 kts | 321° |
| 2026-04-30 13:02 | 29.83195 | -83.37699 | 33953 ft | 432 kts | 321° |
| 2026-04-30 13:03 | 29.88235 | -83.41430 | 33953 ft | 432 kts | 321° |
| 2026-04-30 13:03 | 29.93306 | -83.45189 | 33951 ft | 432 kts | 321° |
| 2026-04-30 13:04 | 29.98338 | -83.48923 | 33949 ft | 432 kts | 321° |
| 2026-04-30 13:04 | 30.03371 | -83.52662 | 33947 ft | 432 kts | 321° |
| 2026-04-30 13:05 | 30.08432 | -83.56426 | 33945 ft | 432 kts | 321° |
| 2026-04-30 13:06 | 30.15968 | -83.62041 | 33932 ft | 432 kts | 321° |
| 2026-04-30 13:06 | 30.21175 | -83.65601 | 33931 ft | 438 kts | 326° |
| 2026-04-30 13:07 | 30.26728 | -83.68527 | 33945 ft | 441 kts | 329° |
| 2026-04-30 13:07 | 30.32311 | -83.71423 | 33949 ft | 440 kts | 328° |
| 2026-04-30 13:08 | 30.37856 | -83.74364 | 33957 ft | 440 kts | 328° |
| 2026-04-30 13:08 | 30.43432 | -83.77327 | 33964 ft | 440 kts | 328° |
| 2026-04-30 13:09 | 30.48991 | -83.80280 | 33962 ft | 441 kts | 328° |
| 2026-04-30 13:09 | 30.54545 | -83.83236 | 33962 ft | 441 kts | 328° |
| 2026-04-30 13:10 | 30.60108 | -83.86199 | 33964 ft | 441 kts | 328° |
| 2026-04-30 13:10 | 30.65673 | -83.89168 | 33965 ft | 441 kts | 328° |
| 2026-04-30 13:11 | 30.71255 | -83.92149 | 33962 ft | 441 kts | 328° |
| 2026-04-30 13:11 | 30.76822 | -83.95126 | 33963 ft | 441 kts | 328° |
| 2026-04-30 13:12 | 30.82384 | -83.98104 | 33966 ft | 441 kts | 328° |
| 2026-04-30 13:12 | 30.87914 | -84.01069 | 33965 ft | 441 kts | 328° |
| 2026-04-30 13:13 | 30.96280 | -84.05562 | 33959 ft | 441 kts | 328° |
| 2026-04-30 13:14 | 31.04648 | -84.10065 | 33951 ft | 443 kts | 329° |
| 2026-04-30 13:14 | 31.13027 | -84.14581 | 33951 ft | 444 kts | 329° |
| 2026-04-30 13:15 | 31.21418 | -84.19113 | 33950 ft | 444 kts | 329° |
| 2026-04-30 13:16 | 31.26998 | -84.22131 | 33953 ft | 444 kts | 329° |
| 2026-04-30 13:16 | 31.32579 | -84.25156 | 33953 ft | 444 kts | 329° |
| 2026-04-30 13:17 | 31.40966 | -84.29707 | 33955 ft | 444 kts | 329° |